aviador You're here:

KPBG Decoded Metar

PLATTSBURGH in NY, USA
Report Time2017-03-23 01:53:00
UTC Time2017-03-23 02:16:26
Flight Rules vfr VFR
Wind290° at 04 kt
W.Decomp.*RWY 35: 2.8 kt HW 2.8 kt LCW
W.Rank290° ranks 14
Current wind is below 290° avg. (6.2)
Visibility9999 m
Phenomena:N/A
Clouds:N/A
Expected CloudBase > 4,800 ft AGL from Temp-Dew spread
CeilingNone
Temp-9°C (ISA -24)
Dew Point-21°C (37% RH)
AAT-14.1°C
QNH1030 hPa
Density Alt-3,261 ft
Elevation236 ft
Report Wrong Elevation
Raw Report
METAR KPBG 230153Z AUTO 29004KT 10SM CLR M09/M21 A3041 RMK AO2 SLP304
T10941206=

Extra information for KPBG:More info

Metar Taf Metar & Taf Last 4 Metars F.Rules Stats Wind Profile Meteogram Temp Stats Airport Information Weather charts Add Link Nearby VenuesMetar ALERT Operation Metar Decoded Social comments

AIRNAV info for KPBG